createdAt,value
2017-08-30T00:01:54.516Z,99882.83
2017-08-30T00:04:22.067Z,99877.80
2017-08-30T00:06:49.457Z,99871.33
2017-08-30T00:09:16.846Z,99869.65
2017-08-30T00:11:44.351Z,99871.83
2017-08-30T00:14:11.750Z,99868.07
2017-08-30T00:16:39.139Z,99862.98
2017-08-30T00:19:06.691Z,99852.72
2017-08-30T00:21:34.094Z,99847.31
2017-08-30T00:24:01.487Z,99852.41
2017-08-30T00:26:28.940Z,99851.97
2017-08-30T00:28:56.333Z,99855.03
2017-08-30T00:31:23.723Z,99848.84
2017-08-30T00:33:51.271Z,99846.19
2017-08-30T00:36:18.659Z,99850.20
2017-08-30T00:38:46.054Z,99846.64
2017-08-30T00:41:13.606Z,99840.63
2017-08-30T00:43:40.999Z,99837.57
2017-08-30T00:46:08.385Z,99830.27
2017-08-30T00:48:35.839Z,99828.75
2017-08-30T00:51:03.227Z,99830.56
2017-08-30T00:53:30.622Z,99831.70
2017-08-30T00:55:58.030Z,99824.81
2017-08-30T00:58:25.418Z,99818.80
2017-08-30T01:00:52.817Z,99819.28
2017-08-30T01:03:20.358Z,99815.65
2017-08-30T01:05:47.751Z,99819.38
2017-08-30T01:08:15.148Z,99812.84
2017-08-30T01:10:42.591Z,99810.41
2017-08-30T01:13:09.982Z,99812.93
2017-08-30T01:15:37.374Z,99804.31
2017-08-30T01:18:04.879Z,99808.61
2017-08-30T01:20:32.275Z,99811.10
2017-08-30T01:22:59.667Z,99807.88
2017-08-30T01:25:27.212Z,99798.21
2017-08-30T01:27:54.607Z,99801.09
2017-08-30T01:30:21.998Z,99791.20
2017-08-30T01:32:49.554Z,99792.63
2017-08-30T01:35:16.951Z,99788.58
2017-08-30T01:37:44.342Z,99780.97
2017-08-30T01:40:11.886Z,99781.00
2017-08-30T01:42:39.283Z,99773.27
2017-08-30T01:45:06.674Z,99773.02
2017-08-30T01:47:34.227Z,99771.91
2017-08-30T01:50:01.623Z,99770.20
2017-08-30T01:52:29.019Z,99771.05
2017-08-30T01:54:56.432Z,99764.55
2017-08-30T01:57:23.823Z,99766.22
2017-08-30T01:59:51.218Z,99753.12
2017-08-30T02:02:18.767Z,99755.08
2017-08-30T02:04:46.163Z,99754.63
2017-08-30T02:07:13.554Z,99749.42
2017-08-30T02:09:40.971Z,99748.13
2017-08-30T02:12:08.362Z,99748.64
2017-08-30T02:14:35.755Z,99741.15
2017-08-30T02:17:03.299Z,99741.05
2017-08-30T02:19:30.691Z,99740.39
2017-08-30T02:21:58.087Z,99747.18
2017-08-30T02:24:26.011Z,99746.14
2017-08-30T02:26:53.406Z,99746.14
2017-08-30T02:29:20.806Z,99739.60
2017-08-30T02:31:48.514Z,99736.69
2017-08-30T02:34:15.916Z,99734.67
2017-08-30T02:36:43.318Z,99728.80
2017-08-30T02:39:10.867Z,99733.13
2017-08-30T02:41:38.259Z,99722.71
2017-08-30T02:44:05.654Z,99723.81
2017-08-30T02:46:33.063Z,99720.09
2017-08-30T02:49:00.459Z,99725.41
2017-08-30T02:51:27.854Z,99722.34
2017-08-30T02:53:55.399Z,99719.41
2017-08-30T02:56:22.790Z,99717.57
2017-08-30T02:58:50.182Z,99716.94
2017-08-30T03:01:17.607Z,99711.10
2017-08-30T03:03:45.006Z,99711.45
2017-08-30T03:06:12.398Z,99711.48
2017-08-30T03:08:39.807Z,99712.64
2017-08-30T03:11:07.197Z,99717.70
2017-08-30T03:13:34.603Z,99711.89
2017-08-30T03:16:02.002Z,99706.45
2017-08-30T03:18:29.394Z,99705.22
2017-08-30T03:20:56.782Z,99705.34
2017-08-30T03:23:24.331Z,99706.77
2017-08-30T03:25:51.723Z,99702.98
2017-08-30T03:28:19.138Z,99706.95
2017-08-30T03:30:46.689Z,99707.14
2017-08-30T03:33:14.083Z,99706.39
2017-08-30T03:35:41.476Z,99701.05
2017-08-30T03:38:08.894Z,99697.83
2017-08-30T03:40:36.283Z,99695.97
2017-08-30T03:43:03.674Z,99690.22
2017-08-30T03:45:31.082Z,99686.33
2017-08-30T03:47:58.474Z,99690.15
2017-08-30T03:50:25.863Z,99681.37
2017-08-30T03:52:53.267Z,99688.31
2017-08-30T03:55:20.667Z,99690.27
2017-08-30T03:57:48.064Z,99688.13
2017-08-30T04:00:15.511Z,99693.23
2017-08-30T04:02:42.903Z,99685.00
2017-08-30T04:05:10.299Z,99677.56
2017-08-30T04:07:37.802Z,99672.22
2017-08-30T04:10:05.198Z,99671.30
2017-08-30T04:12:32.590Z,99667.05
2017-08-30T04:14:59.990Z,99666.11
2017-08-30T04:17:27.382Z,99664.00
2017-08-30T04:19:54.773Z,99671.77
2017-08-30T04:22:22.472Z,99669.67
2017-08-30T04:24:49.870Z,99668.98
2017-08-30T04:27:17.264Z,99663.09
2017-08-30T04:29:44.762Z,99657.48
2017-08-30T04:32:12.162Z,99661.96
2017-08-30T04:34:39.556Z,99654.73
2017-08-30T04:37:07.273Z,99650.92
2017-08-30T04:39:34.662Z,99653.86
2017-08-30T04:42:02.062Z,99642.34
2017-08-30T04:44:29.846Z,99644.61
2017-08-30T04:46:57.239Z,99638.96
2017-08-30T04:49:24.634Z,99637.32
2017-08-30T04:51:52.429Z,99635.65
2017-08-30T04:54:19.822Z,99633.81
2017-08-30T04:56:47.223Z,99624.38
2017-08-30T04:59:14.770Z,99617.82
2017-08-30T05:01:42.467Z,99619.55
2017-08-30T05:04:09.862Z,99619.61
2017-08-30T05:06:37.411Z,99620.52
2017-08-30T05:09:04.823Z,99624.05
2017-08-30T05:11:32.218Z,99623.98
2017-08-30T05:14:00.156Z,99626.63
2017-08-30T05:16:27.547Z,99626.77
2017-08-30T05:18:54.940Z,99623.79
2017-08-30T05:21:22.497Z,99629.59
2017-08-30T05:23:49.882Z,99627.02
2017-08-30T05:26:17.275Z,99625.88
2017-08-30T05:28:44.686Z,99620.00
2017-08-30T05:31:12.078Z,99624.94
2017-08-30T05:33:39.466Z,99617.09
2017-08-30T05:36:06.879Z,99618.34
2017-08-30T05:38:34.275Z,99609.83
2017-08-30T05:41:01.668Z,99602.88
2017-08-30T05:43:29.231Z,99603.38
2017-08-30T05:45:56.629Z,99592.92
2017-08-30T05:48:24.015Z,99585.42
2017-08-30T05:50:51.562Z,99586.20
2017-08-30T05:53:18.951Z,99582.30
2017-08-30T05:55:46.342Z,99583.49
2017-08-30T05:58:14.079Z,99581.39
2017-08-30T06:00:41.470Z,99572.33
2017-08-30T06:03:08.862Z,99571.22
2017-08-30T06:05:36.407Z,99571.06
2017-08-30T06:08:03.803Z,99574.23
2017-08-30T06:10:32.155Z,99566.30
2017-08-30T06:12:59.649Z,99559.43
2017-08-30T06:15:27.046Z,99561.88
2017-08-30T06:17:54.443Z,99560.64
2017-08-30T06:20:21.843Z,99552.52
2017-08-30T06:22:49.245Z,99553.96
2017-08-30T06:25:16.630Z,99550.98
2017-08-30T06:27:44.499Z,99554.62
2017-08-30T06:30:11.891Z,99559.86
2017-08-30T06:32:39.283Z,99554.45
2017-08-30T06:35:06.847Z,99555.38
2017-08-30T06:37:34.239Z,99555.22
2017-08-30T06:40:01.630Z,99547.78
2017-08-30T06:42:29.038Z,99552.46
2017-08-30T06:44:56.434Z,99548.84
2017-08-30T06:47:23.826Z,99547.36
2017-08-30T06:49:51.238Z,99551.77
2017-08-30T06:52:18.631Z,99555.34
2017-08-30T06:54:46.028Z,99551.91
2017-08-30T06:57:13.779Z,99568.59
2017-08-30T06:59:41.166Z,99561.42
2017-08-30T07:02:08.563Z,99570.17
2017-08-30T07:04:35.975Z,99571.64
2017-08-30T07:07:03.368Z,99578.95
2017-08-30T07:09:30.757Z,99581.61
2017-08-30T07:11:58.510Z,99593.08
2017-08-30T07:14:25.906Z,99607.19
2017-08-30T07:16:53.291Z,99637.61
2017-08-30T07:19:20.730Z,99670.17
2017-08-30T07:21:48.126Z,99722.98
2017-08-30T07:24:15.514Z,99740.83
2017-08-30T07:26:43.275Z,99752.56
2017-08-30T07:29:10.666Z,99770.28
2017-08-30T07:31:38.063Z,99763.88
2017-08-30T07:34:05.503Z,99761.66
2017-08-30T07:36:32.894Z,99752.33
2017-08-30T07:39:00.287Z,99743.56
2017-08-30T07:41:28.014Z,99743.12
2017-08-30T07:43:55.411Z,99743.87
2017-08-30T07:46:22.806Z,99745.12
2017-08-30T07:48:50.312Z,99732.77
2017-08-30T07:51:17.695Z,99721.52
2017-08-30T07:53:45.087Z,99720.67
2017-08-30T07:56:12.754Z,99722.23
2017-08-30T07:58:40.158Z,99715.66
2017-08-30T08:01:07.552Z,99725.94
2017-08-30T08:03:35.104Z,99726.07
2017-08-30T08:06:02.490Z,99721.33
2017-08-30T08:08:29.892Z,99715.86
2017-08-30T08:10:57.297Z,99712.98
2017-08-30T08:13:24.689Z,99707.35
2017-08-30T08:15:52.083Z,99699.45
2017-08-30T08:18:19.586Z,99689.41
2017-08-30T08:20:46.994Z,99682.17
2017-08-30T08:23:14.384Z,99692.12
2017-08-30T08:25:41.798Z,99690.13
2017-08-30T08:28:09.190Z,99699.11
2017-08-30T08:30:36.587Z,99687.84
2017-08-30T08:33:04.003Z,99689.09
2017-08-30T08:35:31.397Z,99678.63
2017-08-30T08:37:58.798Z,99680.98
2017-08-30T08:40:26.583Z,99679.63
2017-08-30T08:42:53.975Z,99676.89
2017-08-30T08:45:21.365Z,99692.46
2017-08-30T08:47:49.163Z,99703.47
2017-08-30T08:50:16.550Z,99699.99
2017-08-30T08:52:43.958Z,99686.89
2017-08-30T08:55:11.518Z,99686.20
2017-08-30T08:57:38.903Z,99662.53
2017-08-30T09:00:06.294Z,99650.48
2017-08-30T09:02:33.844Z,99664.13
2017-08-30T09:05:01.234Z,99667.40
2017-08-30T09:07:28.648Z,99665.08
2017-08-30T09:09:56.274Z,99667.64
2017-08-30T09:12:23.670Z,99656.48
2017-08-30T09:14:51.063Z,99644.92
2017-08-30T09:17:18.483Z,99630.64
2017-08-30T09:19:45.883Z,99626.59
2017-08-30T09:22:13.286Z,99634.73
2017-08-30T09:24:40.834Z,99639.45
2017-08-30T09:27:08.224Z,99658.30
2017-08-30T09:29:35.614Z,99668.81
2017-08-30T09:32:03.162Z,99667.16
2017-08-30T09:34:30.559Z,99663.58
2017-08-30T09:36:57.954Z,99669.02
2017-08-30T09:39:25.559Z,99683.55
2017-08-30T09:41:52.955Z,99699.11
2017-08-30T09:44:20.347Z,99686.61
2017-08-30T09:46:47.785Z,99674.48
2017-08-30T09:49:15.166Z,99667.94
2017-08-30T09:51:42.562Z,99663.22
2017-08-30T09:54:09.972Z,99657.23
2017-08-30T09:56:37.363Z,99656.77
2017-08-30T09:59:04.760Z,99644.77
2017-08-30T10:01:32.306Z,99628.63
2017-08-30T10:03:59.710Z,99616.34
2017-08-30T10:06:27.103Z,99596.28
2017-08-30T10:08:54.539Z,99576.84
2017-08-30T10:11:21.931Z,99578.27
2017-08-30T10:13:49.322Z,99578.42
2017-08-30T10:16:16.727Z,99588.02
2017-08-30T10:18:44.127Z,99591.81
2017-08-30T10:21:11.538Z,99586.05
2017-08-30T10:23:39.087Z,99586.38
2017-08-30T10:26:06.479Z,99593.06
2017-08-30T10:28:33.867Z,99580.12
2017-08-30T10:31:01.419Z,99572.25
2017-08-30T10:33:28.818Z,99574.44
2017-08-30T10:35:56.210Z,99578.48
2017-08-30T10:38:23.628Z,99580.34
2017-08-30T10:40:51.019Z,99574.09
2017-08-30T10:43:18.420Z,99578.55
2017-08-30T10:45:45.855Z,99575.73
2017-08-30T10:48:13.246Z,99562.47
2017-08-30T10:50:40.647Z,99565.91
2017-08-30T10:53:08.056Z,99568.17
2017-08-30T10:55:35.451Z,99572.13
2017-08-30T10:58:02.854Z,99575.88
2017-08-30T11:00:30.634Z,99578.69
2017-08-30T11:02:58.038Z,99588.09
2017-08-30T11:05:25.434Z,99600.89
2017-08-30T11:07:52.979Z,99606.34
2017-08-30T11:10:20.371Z,99605.42
2017-08-30T11:12:47.763Z,99613.48
2017-08-30T11:15:15.422Z,99618.28
2017-08-30T11:17:42.818Z,99621.92
2017-08-30T11:20:10.211Z,99631.27
2017-08-30T11:22:37.656Z,99632.49
2017-08-30T11:25:05.040Z,99638.03
2017-08-30T11:27:32.430Z,99635.18
2017-08-30T11:29:59.829Z,99631.05
2017-08-30T11:32:27.227Z,99622.32
2017-08-30T11:34:54.622Z,99621.84
2017-08-30T11:37:22.174Z,99619.13
2017-08-30T11:39:49.574Z,99614.38
2017-08-30T11:42:16.962Z,99610.91
2017-08-30T11:44:44.871Z,99601.38
2017-08-30T11:47:12.259Z,99604.45
2017-08-30T11:49:39.650Z,99604.84
2017-08-30T11:52:07.190Z,99593.56
2017-08-30T11:54:34.598Z,99593.86
2017-08-30T11:57:01.992Z,99594.20
2017-08-30T11:59:29.535Z,99581.45
2017-08-30T12:01:56.932Z,99582.87
2017-08-30T12:04:24.374Z,99590.28
2017-08-30T12:06:51.770Z,99588.34
2017-08-30T12:09:19.162Z,99585.66
2017-08-30T12:11:46.554Z,99582.13
2017-08-30T12:14:13.954Z,99585.38
2017-08-30T12:16:41.354Z,99591.67
2017-08-30T12:19:08.742Z,99589.13
2017-08-30T12:21:36.255Z,99589.75
2017-08-30T12:24:03.634Z,99597.98
2017-08-30T12:26:31.035Z,99593.71
2017-08-30T12:28:58.546Z,99583.97
2017-08-30T12:31:25.940Z,99588.05
2017-08-30T12:33:53.322Z,99590.59
2017-08-30T12:36:20.889Z,99596.14
2017-08-30T12:38:53.882Z,99594.59
2017-08-30T12:41:21.378Z,99595.44
2017-08-30T12:43:48.780Z,99590.07
2017-08-30T12:46:17.716Z,99588.81
2017-08-30T12:48:46.128Z,99585.98
2017-08-30T12:51:13.523Z,99578.69
2017-08-30T12:53:40.948Z,99588.34
2017-08-30T12:56:09.239Z,99583.30
2017-08-30T12:58:36.635Z,99586.56
2017-08-30T13:01:04.031Z,99588.52
2017-08-30T13:03:31.534Z,99587.06
2017-08-30T13:05:58.948Z,99583.16
2017-08-30T13:08:26.351Z,99580.45
2017-08-30T13:10:54.070Z,99577.53
2017-08-30T13:13:21.473Z,99576.23
2017-08-30T13:15:48.936Z,99580.61
2017-08-30T13:18:16.492Z,99577.95
2017-08-30T13:20:43.888Z,99571.17
2017-08-30T13:23:11.283Z,99558.97
2017-08-30T13:25:38.686Z,99556.09
2017-08-30T13:28:06.109Z,99552.16
2017-08-30T13:30:33.554Z,99542.75
2017-08-30T13:33:01.013Z,99537.56
2017-08-30T13:35:28.400Z,99532.48
2017-08-30T13:37:56.512Z,99527.05
2017-08-30T13:40:24.078Z,99535.05
2017-08-30T13:42:51.512Z,99529.47
2017-08-30T13:45:18.875Z,99526.14
2017-08-30T13:47:46.315Z,99522.88
2017-08-30T13:50:13.728Z,99518.20
2017-08-30T13:52:41.128Z,99522.90
2017-08-30T13:55:08.732Z,99522.97
2017-08-30T13:57:36.127Z,99517.73
2017-08-30T14:00:03.532Z,99514.44
2017-08-30T14:02:31.290Z,99512.49
2017-08-30T14:04:58.678Z,99513.68
2017-08-30T14:07:26.074Z,99517.83
2017-08-30T14:09:53.628Z,99508.72
2017-08-30T14:12:21.883Z,99505.49
2017-08-30T14:14:49.280Z,99504.33
2017-08-30T14:17:16.895Z,99506.12
2017-08-30T14:19:44.330Z,99505.70
2017-08-30T14:22:11.718Z,99510.95
2017-08-30T14:24:39.267Z,99515.92
2017-08-30T14:27:06.660Z,99514.44
2017-08-30T14:29:34.056Z,99519.88
2017-08-30T14:32:01.572Z,99513.78
2017-08-30T14:34:28.976Z,99507.92
2017-08-30T14:36:56.393Z,99509.28
2017-08-30T14:39:23.807Z,99511.25
2017-08-30T14:41:51.216Z,99514.37
2017-08-30T14:44:18.607Z,99518.41
2017-08-30T14:46:46.043Z,99517.47
2017-08-30T14:49:14.035Z,99520.34
2017-08-30T14:51:41.441Z,99520.45
2017-08-30T14:54:08.998Z,99528.47
2017-08-30T14:56:36.405Z,99529.13
2017-08-30T14:59:04.647Z,99530.47
2017-08-30T15:01:32.071Z,99523.20
2017-08-30T15:03:59.475Z,99514.81
2017-08-30T15:06:26.889Z,99523.56
2017-08-30T15:08:54.564Z,99520.59
2017-08-30T15:11:22.000Z,99518.78
2017-08-30T15:13:49.415Z,99520.86
2017-08-30T15:16:17.061Z,99518.70
2017-08-30T15:18:44.458Z,99524.73
2017-08-30T15:21:11.851Z,99529.30
2017-08-30T15:23:39.402Z,99528.11
2017-08-30T15:26:06.791Z,99528.17
2017-08-30T15:28:34.210Z,99523.80
2017-08-30T15:31:01.748Z,99521.85
2017-08-30T15:33:29.139Z,99532.00
2017-08-30T15:35:56.534Z,99534.28
2017-08-30T15:38:24.083Z,99529.84
2017-08-30T15:40:51.521Z,99524.75
2017-08-30T15:43:18.906Z,99526.47
2017-08-30T15:45:46.311Z,99528.81
2017-08-30T15:48:13.719Z,99524.06
2017-08-30T15:50:41.111Z,99530.49
2017-08-30T15:53:08.843Z,99524.66
2017-08-30T15:55:36.234Z,99527.41
2017-08-30T15:58:03.635Z,99517.84
2017-08-30T16:00:31.295Z,99514.42
2017-08-30T16:02:58.690Z,99506.14
2017-08-30T16:05:26.087Z,99501.78
2017-08-30T16:07:53.593Z,99501.16
2017-08-30T16:10:21.007Z,99493.97
2017-08-30T16:12:48.402Z,99508.38
2017-08-30T16:15:15.903Z,99506.45
2017-08-30T16:17:43.294Z,99501.31
2017-08-30T16:20:10.690Z,99490.89
2017-08-30T16:22:38.234Z,99494.48
2017-08-30T16:25:05.630Z,99483.92
2017-08-30T16:27:33.022Z,99478.39
2017-08-30T16:30:00.571Z,99474.09
2017-08-30T16:32:27.964Z,99464.48
2017-08-30T16:34:55.354Z,99463.98
2017-08-30T16:37:23.153Z,99463.73
2017-08-30T16:39:50.556Z,99466.79
2017-08-30T16:42:17.947Z,99473.97
2017-08-30T16:44:45.447Z,99473.33
2017-08-30T16:47:12.839Z,99476.58
2017-08-30T16:49:40.233Z,99478.06
2017-08-30T16:52:07.731Z,99470.65
2017-08-30T16:54:35.123Z,99470.25
2017-08-30T16:57:02.517Z,99457.75
2017-08-30T16:59:30.478Z,99457.52
2017-08-30T17:01:57.883Z,99447.39
2017-08-30T17:04:25.274Z,99446.76
2017-08-30T17:06:53.070Z,99446.71
2017-08-30T17:09:20.472Z,99446.63
2017-08-30T17:11:47.862Z,99443.73
2017-08-30T17:14:15.640Z,99437.72
2017-08-30T17:16:43.030Z,99446.44
2017-08-30T17:19:10.422Z,99447.21
2017-08-30T17:21:37.833Z,99445.47
2017-08-30T17:24:05.237Z,99451.36
2017-08-30T17:26:32.621Z,99442.64
2017-08-30T17:29:00.066Z,99444.36
2017-08-30T17:31:27.481Z,99435.97
2017-08-30T17:33:54.858Z,99429.08
2017-08-30T17:36:22.284Z,99426.97
2017-08-30T17:38:49.671Z,99431.96
2017-08-30T17:41:17.070Z,99446.63
2017-08-30T17:43:44.762Z,99448.16
2017-08-30T17:46:12.165Z,99450.52
2017-08-30T17:48:39.566Z,99445.26
2017-08-30T17:51:07.110Z,99447.20
2017-08-30T17:53:34.507Z,99444.56
2017-08-30T17:56:01.900Z,99441.59
2017-08-30T17:58:29.446Z,99438.43
2017-08-30T18:00:56.841Z,99456.95
2017-08-30T18:03:24.334Z,99451.52
2017-08-30T18:05:51.883Z,99447.01
2017-08-30T18:08:19.283Z,99457.67
2017-08-30T18:10:46.682Z,99465.75
2017-08-30T18:13:14.103Z,99476.81
2017-08-30T18:15:41.514Z,99466.89
2017-08-30T18:18:08.923Z,99474.67
2017-08-30T18:20:36.410Z,99474.09
2017-08-30T18:23:03.799Z,99484.21
2017-08-30T18:25:31.194Z,99491.51
2017-08-30T18:27:58.746Z,99489.41
2017-08-30T18:30:27.050Z,99487.05
2017-08-30T18:32:54.446Z,99491.64
2017-08-30T18:35:23.054Z,99497.36
2017-08-30T18:37:50.447Z,99509.31
2017-08-30T18:40:17.841Z,99514.55
2017-08-30T18:42:45.239Z,99517.47
2017-08-30T18:45:12.627Z,99515.63
2017-08-30T18:47:40.018Z,99520.53
2017-08-30T18:50:07.443Z,99516.59
2017-08-30T18:52:34.854Z,99504.80
2017-08-30T18:55:02.266Z,99507.55
2017-08-30T18:57:29.675Z,99516.95
2017-08-30T18:59:57.066Z,99507.27
2017-08-30T19:02:24.458Z,99508.89
2017-08-30T19:04:51.875Z,99514.68
2017-08-30T19:07:19.267Z,99521.50
2017-08-30T19:09:46.656Z,99521.30
2017-08-30T19:12:14.069Z,99522.56
2017-08-30T19:14:41.462Z,99528.67
2017-08-30T19:17:08.852Z,99538.47
2017-08-30T19:19:36.475Z,99542.80
2017-08-30T19:22:03.868Z,99550.34
2017-08-30T19:24:31.264Z,99555.31
2017-08-30T19:26:58.822Z,99552.45
2017-08-30T19:29:26.230Z,99550.97
2017-08-30T19:31:53.615Z,99546.42
2017-08-30T19:34:21.055Z,99547.41
2017-08-30T19:36:48.542Z,99543.67
2017-08-30T19:39:15.934Z,99543.13
2017-08-30T19:41:43.383Z,99546.11
2017-08-30T19:44:10.770Z,99549.96
2017-08-30T19:46:38.164Z,99557.97
2017-08-30T19:49:05.772Z,99563.91
2017-08-30T19:51:33.167Z,99583.59
2017-08-30T19:54:00.564Z,99603.03
2017-08-30T19:56:28.062Z,99597.34
2017-08-30T19:58:55.463Z,99605.05
2017-08-30T20:01:22.859Z,99606.84
2017-08-30T20:03:50.619Z,99626.08
2017-08-30T20:06:18.011Z,99630.64
2017-08-30T20:08:45.403Z,99637.75
2017-08-30T20:11:12.818Z,99639.56
2017-08-30T20:13:40.213Z,99642.75
2017-08-30T20:16:07.601Z,99645.95
2017-08-30T20:18:35.102Z,99656.03
2017-08-30T20:21:02.494Z,99659.44
2017-08-30T20:23:29.890Z,99659.44
2017-08-30T20:25:57.444Z,99650.17
2017-08-30T20:28:24.826Z,99653.56
2017-08-30T20:30:52.218Z,99657.55
2017-08-30T20:33:19.786Z,99663.63
2017-08-30T20:35:47.178Z,99668.27
2017-08-30T20:38:14.572Z,99674.63
2017-08-30T20:40:42.123Z,99673.80
2017-08-30T20:43:09.515Z,99672.41
2017-08-30T20:45:36.909Z,99663.63
2017-08-30T20:48:04.740Z,99661.88
2017-08-30T20:50:32.131Z,99658.08
2017-08-30T20:52:59.519Z,99662.62
2017-08-30T20:55:26.959Z,99664.44
2017-08-30T20:57:54.355Z,99668.69
2017-08-30T21:00:21.776Z,99658.30
2017-08-30T21:02:49.200Z,99662.76
2017-08-30T21:05:16.595Z,99670.42
2017-08-30T21:07:43.982Z,99663.88
2017-08-30T21:10:11.659Z,99664.30
2017-08-30T21:12:39.052Z,99659.31
2017-08-30T21:15:06.439Z,99656.38
2017-08-30T21:17:33.991Z,99646.83
2017-08-30T21:20:01.383Z,99645.30
2017-08-30T21:22:28.775Z,99647.84
2017-08-30T21:24:56.322Z,99650.57
2017-08-30T21:27:23.716Z,99657.83
2017-08-30T21:29:51.106Z,99657.37
2017-08-30T21:32:18.974Z,99680.20
2017-08-30T21:34:46.366Z,99688.36
2017-08-30T21:37:13.762Z,99684.14
2017-08-30T21:39:41.317Z,99688.52
2017-08-30T21:42:08.691Z,99692.19
2017-08-30T21:44:36.083Z,99688.87
2017-08-30T21:47:03.642Z,99692.44
2017-08-30T21:49:31.027Z,99696.89
2017-08-30T21:51:58.418Z,99700.59
2017-08-30T21:54:25.818Z,99695.09
2017-08-30T21:56:53.211Z,99689.41
2017-08-30T21:59:20.612Z,99691.72
2017-08-30T22:01:48.019Z,99692.03
2017-08-30T22:04:15.420Z,99689.72
2017-08-30T22:06:42.812Z,99682.11
2017-08-30T22:09:10.315Z,99674.59
2017-08-30T22:11:37.708Z,99667.97
2017-08-30T22:14:05.146Z,99676.53
2017-08-30T22:16:32.559Z,99663.94
2017-08-30T22:18:59.951Z,99668.64
2017-08-30T22:21:27.344Z,99661.76
2017-08-30T22:23:54.758Z,99665.30
2017-08-30T22:26:22.151Z,99673.37
2017-08-30T22:28:49.544Z,99675.59
2017-08-30T22:31:16.954Z,99683.30
2017-08-30T22:33:44.350Z,99682.25
2017-08-30T22:36:11.744Z,99678.09
2017-08-30T22:38:39.513Z,99679.79
2017-08-30T22:41:06.908Z,99684.48
2017-08-30T22:43:34.298Z,99691.59
2017-08-30T22:46:02.492Z,99687.96
2017-08-30T22:48:29.884Z,99685.12
2017-08-30T22:50:57.307Z,99685.47
2017-08-30T22:53:24.855Z,99680.52
2017-08-30T22:55:52.247Z,99690.80
2017-08-30T22:58:19.650Z,99685.44
2017-08-30T23:00:47.160Z,99689.02
2017-08-30T23:03:14.555Z,99686.45
2017-08-30T23:05:41.952Z,99682.56
2017-08-30T23:08:09.497Z,99690.61
2017-08-30T23:10:36.896Z,99700.15
2017-08-30T23:13:04.283Z,99714.47
2017-08-30T23:15:31.723Z,99701.76
2017-08-30T23:17:59.126Z,99686.00
2017-08-30T23:20:26.518Z,99693.02
2017-08-30T23:22:53.922Z,99690.95
2017-08-30T23:25:21.332Z,99685.29
2017-08-30T23:27:48.726Z,99683.19
2017-08-30T23:30:16.160Z,99676.73
2017-08-30T23:32:43.561Z,99684.19
2017-08-30T23:35:10.944Z,99683.75
2017-08-30T23:37:38.451Z,99681.15
2017-08-30T23:40:05.841Z,99680.48
2017-08-30T23:42:33.230Z,99680.99
2017-08-30T23:45:00.778Z,99678.72
2017-08-30T23:47:28.170Z,99673.91
2017-08-30T23:49:55.558Z,99665.08
2017-08-30T23:52:22.998Z,99663.91
2017-08-30T23:54:50.395Z,99662.38
2017-08-30T23:57:17.787Z,99657.55
2017-08-30T23:59:45.606Z,99666.34
